Rostjenta — LK6977 — position and weather

sailwx.info

Track history (hours):
 
Tides and Currents Weather Stations Pressure Air Temp Water Temp Dewpoint Dewpoint Depression Visibility Wind Speed Wind Dir Waves Ship Positions

Rostjenta

Last reported at 2018-Feb-05 16:58 UTC. Time now 2018-Feb-25 16:07 UTC.
Position N 70°38' E 021°59'.
Warning: this ship's position is 19 days out of date.

Length 15 m.

Type: Ship. MMSI: 257077440.

Date/timePositionNaut miles runAvg speedWind from/ knotsBaromVisibWave heightAir tempDewpointWater temp
2018-Feb-05 16:58N 70°38' E 021°59'0 0.0
2018-Feb-05 16:29N 70°38' E 021°59'0 0.0
2018-Feb-05 15:54N 70°38' E 021°59'0 0.0
2018-Feb-05 15:28N 70°38' E 021°59'0 0.0
2018-Feb-05 14:59N 70°38' E 021°59'0 0.0
2018-Feb-05 12:06N 70°38' E 021°59'0 0.0
2018-Feb-05 12:00N 70°38' E 021°59'0 0.0
2018-Feb-05 11:30N 70°38' E 021°59'0 0.0
2018-Feb-05 11:00N 70°38' E 021°59'0 0.0
2018-Feb-05 10:29N 70°38' E 021°59'0 0.0
2018-Feb-05 09:58N 70°38' E 021°59'0 0.0
2018-Feb-05 09:30N 70°38' E 021°59'0 0.0
2018-Feb-05 09:00N 70°38' E 021°59'0 0.0
2018-Feb-05 08:29N 70°38' E 021°59'0 0.0
2018-Feb-05 07:43N 70°38' E 021°59'0 0.0
2018-Feb-05 07:30N 70°38' E 021°59'0 0.0
2018-Feb-04 18:19N 70°38' E 021°59'3 8.1
2018-Feb-04 18:00N 70°36' E 021°53'4 8.5
2018-Feb-04 17:29N 70°33' E 021°44'19 8.8
2018-Feb-04 15:21N 70°16' E 021°17'10 7.1
2018-Feb-04 13:56N 70°06' E 021°23'6 8.4
2018-Feb-04 13:16N 70°02' E 021°32'  
2018-Jan-31 23:00N 70°38' E 021°59'0 0.0
2018-Jan-31 22:30N 70°38' E 021°59'0 0.0
2018-Jan-31 21:00N 70°38' E 021°59'0 0.0
2018-Jan-31 20:23N 70°38' E 021°59'  
Track history (hours):
 
Tides and Currents Weather Stations Pressure Air Temp Water Temp Dewpoint Dewpoint Depression Visibility Wind Speed Wind Dir Waves Ship Positions

Rostjenta

Last reported at 2018-Feb-05 16:58 UTC. Time now 2018-Feb-25 16:07 UTC.
Position N 70°38' E 021°59'.
Warning: this ship's position is 19 days out of date.

Length 15 m.

Type: Ship. MMSI: 257077440.

Date/timePositionNaut miles runAvg speedWind from/ knotsBaromVisibWave heightAir tempDewpointWater temp
2018-Feb-05 16:58N 70°38' E 021°59'0 0.0
2018-Feb-05 16:29N 70°38' E 021°59'0 0.0
2018-Feb-05 15:54N 70°38' E 021°59'0 0.0
2018-Feb-05 15:28N 70°38' E 021°59'0 0.0
2018-Feb-05 14:59N 70°38' E 021°59'0 0.0
2018-Feb-05 12:06N 70°38' E 021°59'0 0.0
2018-Feb-05 12:00N 70°38' E 021°59'0 0.0
2018-Feb-05 11:30N 70°38' E 021°59'0 0.0
2018-Feb-05 11:00N 70°38' E 021°59'0 0.0
2018-Feb-05 10:29N 70°38' E 021°59'0 0.0
2018-Feb-05 09:58N 70°38' E 021°59'0 0.0
2018-Feb-05 09:30N 70°38' E 021°59'0 0.0
2018-Feb-05 09:00N 70°38' E 021°59'0 0.0
2018-Feb-05 08:29N 70°38' E 021°59'0 0.0
2018-Feb-05 07:43N 70°38' E 021°59'0 0.0
2018-Feb-05 07:30N 70°38' E 021°59'0 0.0
2018-Feb-04 18:19N 70°38' E 021°59'3 8.1
2018-Feb-04 18:00N 70°36' E 021°53'4 8.5
2018-Feb-04 17:29N 70°33' E 021°44'19 8.8
2018-Feb-04 15:21N 70°16' E 021°17'10 7.1
2018-Feb-04 13:56N 70°06' E 021°23'6 8.4
2018-Feb-04 13:16N 70°02' E 021°32'  
2018-Jan-31 23:00N 70°38' E 021°59'0 0.0
2018-Jan-31 22:30N 70°38' E 021°59'0 0.0
2018-Jan-31 21:00N 70°38' E 021°59'0 0.0
2018-Jan-31 20:23N 70°38' E 021°59'  

Dump ship's entire track history